createdAt,value
2017-08-10T00:02:05.216Z,17.50
2017-08-10T00:04:39.269Z,17.30
2017-08-10T00:07:13.570Z,17.10
2017-08-10T00:09:47.529Z,17.20
2017-08-10T00:12:22.463Z,17.40
2017-08-10T00:14:57.542Z,17.50
2017-08-10T00:17:32.366Z,17.50
2017-08-10T00:20:06.315Z,17.50
2017-08-10T00:22:40.638Z,17.60
2017-08-10T00:25:14.712Z,17.60
2017-08-10T00:27:50.499Z,17.60
2017-08-10T00:30:26.044Z,17.60
2017-08-10T00:33:00.066Z,17.60
2017-08-10T00:35:34.018Z,17.70
2017-08-10T00:38:07.978Z,17.70
2017-08-10T00:40:42.732Z,17.70
2017-08-10T00:43:17.997Z,17.60
2017-08-10T00:45:52.199Z,17.70
2017-08-10T00:48:25.885Z,17.70
2017-08-10T00:51:00.025Z,17.70
2017-08-10T00:53:34.994Z,17.70
2017-08-10T00:56:08.976Z,17.70
2017-08-10T00:58:43.057Z,17.60
2017-08-10T01:01:17.990Z,17.60
2017-08-10T01:03:51.999Z,17.60
2017-08-10T01:06:26.568Z,17.50
2017-08-10T01:09:02.185Z,17.50
2017-08-10T01:11:37.205Z,17.60
2017-08-10T01:14:12.062Z,17.50
2017-08-10T01:16:47.658Z,17.50
2017-08-10T01:19:22.189Z,17.50
2017-08-10T01:21:56.088Z,17.40
2017-08-10T01:24:30.074Z,17.50
2017-08-10T01:27:04.930Z,17.60
2017-08-10T01:29:38.905Z,17.60
2017-08-10T01:32:12.652Z,17.70
2017-08-10T01:34:46.850Z,17.70
2017-08-10T01:37:21.250Z,17.70
2017-08-10T01:39:55.062Z,17.70
2017-08-10T01:42:29.159Z,17.70
2017-08-10T01:45:03.211Z,17.70
2017-08-10T01:47:37.568Z,17.70
2017-08-10T01:50:11.729Z,17.70
2017-08-10T01:52:46.687Z,17.70
2017-08-10T01:55:22.385Z,17.70
2017-08-10T01:57:56.775Z,17.70
2017-08-10T02:00:30.764Z,17.70
2017-08-10T02:03:05.444Z,17.70
2017-08-10T02:05:39.613Z,17.60
2017-08-10T02:08:13.667Z,17.70
2017-08-10T02:10:48.567Z,17.70
2017-08-10T02:13:23.778Z,17.70
2017-08-10T02:15:58.005Z,17.70
2017-08-10T02:18:33.326Z,17.60
2017-08-10T02:21:08.038Z,17.60
2017-08-10T02:23:42.987Z,17.60
2017-08-10T02:26:17.947Z,17.70
2017-08-10T02:28:54.365Z,17.60
2017-08-10T02:31:28.460Z,17.70
2017-08-10T02:34:02.735Z,17.70
2017-08-10T02:36:37.612Z,17.70
2017-08-10T02:39:11.943Z,17.70
2017-08-10T02:41:46.692Z,17.70
2017-08-10T02:44:21.455Z,17.70
2017-08-10T02:46:56.589Z,17.70
2017-08-10T02:49:31.392Z,17.70
2017-08-10T02:52:06.838Z,17.50
2017-08-10T02:54:45.889Z,17.30
2017-08-10T02:57:20.102Z,17.30
2017-08-10T02:59:56.823Z,17.40
2017-08-10T03:02:31.607Z,17.20
2017-08-10T03:05:05.742Z,17.20
2017-08-10T03:07:39.987Z,17.10
2017-08-10T03:10:15.158Z,17.10
2017-08-10T03:12:49.987Z,17.20
2017-08-10T03:15:24.064Z,17.10
2017-08-10T03:17:58.423Z,17.00
2017-08-10T03:20:32.323Z,17.00
2017-08-10T03:23:06.250Z,17.00
2017-08-10T03:25:40.408Z,17.00
2017-08-10T03:28:15.793Z,17.10
2017-08-10T03:30:50.127Z,17.00
2017-08-10T03:33:24.169Z,17.00
2017-08-10T03:35:58.561Z,16.90
2017-08-10T03:38:32.598Z,16.90
2017-08-10T03:41:07.331Z,16.80
2017-08-10T03:43:41.707Z,16.80
2017-08-10T03:46:15.764Z,16.80
2017-08-10T03:48:49.981Z,16.80
2017-08-10T03:51:28.519Z,16.70
2017-08-10T03:54:02.447Z,16.70
2017-08-10T03:56:37.755Z,16.80
2017-08-10T03:59:12.102Z,16.80
2017-08-10T04:01:46.285Z,16.70
2017-08-10T04:04:21.364Z,16.60
2017-08-10T04:06:55.993Z,16.60
2017-08-10T04:09:30.397Z,16.60
2017-08-10T04:12:04.703Z,16.60
2017-08-10T04:14:40.870Z,16.70
2017-08-10T04:17:15.487Z,16.70
2017-08-10T04:19:49.711Z,16.70
2017-08-10T04:22:25.164Z,16.80
2017-08-10T04:24:59.303Z,16.90
2017-08-10T04:27:35.553Z,16.70
2017-08-10T04:30:10.414Z,16.80
2017-08-10T04:32:45.373Z,16.40
2017-08-10T04:35:19.456Z,16.40
2017-08-10T04:37:54.543Z,16.30
2017-08-10T04:40:29.268Z,16.30
2017-08-10T04:43:04.313Z,16.30
2017-08-10T04:45:38.421Z,16.40
2017-08-10T04:48:12.476Z,16.70
2017-08-10T04:50:47.695Z,16.70
2017-08-10T04:53:21.735Z,16.70
2017-08-10T04:55:56.986Z,16.80
2017-08-10T04:58:31.198Z,16.90
2017-08-10T05:01:07.532Z,16.90
2017-08-10T05:03:43.124Z,16.90
2017-08-10T05:06:17.237Z,17.00
2017-08-10T05:08:52.079Z,16.90
2017-08-10T05:11:27.179Z,16.90
2017-08-10T05:14:01.533Z,16.90
2017-08-10T05:16:35.891Z,16.80
2017-08-10T05:19:12.962Z,16.80
2017-08-10T05:21:48.269Z,16.90
2017-08-10T05:24:23.679Z,16.90
2017-08-10T05:26:57.700Z,16.90
2017-08-10T05:29:34.325Z,16.80
2017-08-10T05:32:11.280Z,16.80
2017-08-10T05:34:45.962Z,16.90
2017-08-10T05:37:22.307Z,16.90
2017-08-10T05:39:57.698Z,16.90
2017-08-10T05:42:31.861Z,16.90
2017-08-10T05:45:13.184Z,16.90
2017-08-10T05:47:49.393Z,16.80
2017-08-10T05:50:24.236Z,16.80
2017-08-10T05:52:58.920Z,16.50
2017-08-10T05:55:34.987Z,16.50
2017-08-10T05:58:09.880Z,16.50
2017-08-10T06:00:45.978Z,16.40
2017-08-10T06:03:22.542Z,16.70
2017-08-10T06:05:57.782Z,16.70
2017-08-10T06:08:33.226Z,16.40
2017-08-10T06:11:08.595Z,16.50
2017-08-10T06:13:44.714Z,16.60
2017-08-10T06:16:22.494Z,16.60
2017-08-10T06:18:56.209Z,16.70
2017-08-10T06:21:30.433Z,16.80
2017-08-10T06:24:05.301Z,16.90
2017-08-10T06:26:48.662Z,16.80
2017-08-10T06:29:25.809Z,16.50
2017-08-10T06:31:59.740Z,16.50
2017-08-10T06:34:34.674Z,16.30
2017-08-10T06:37:09.546Z,16.50
2017-08-10T06:39:43.643Z,16.60
2017-08-10T06:42:20.047Z,16.60
2017-08-10T06:44:54.312Z,16.50
2017-08-10T06:47:29.790Z,16.40
2017-08-10T06:50:04.105Z,16.50
2017-08-10T06:52:39.473Z,16.70
2017-08-10T06:55:13.535Z,16.60
2017-08-10T06:57:50.237Z,16.60
2017-08-10T07:00:25.409Z,16.60
2017-08-10T07:03:02.718Z,16.50
2017-08-10T07:05:37.903Z,16.70
2017-08-10T07:08:13.146Z,16.80
2017-08-10T07:10:50.676Z,16.80
2017-08-10T07:13:24.617Z,16.80
2017-08-10T07:15:59.297Z,17.00
2017-08-10T07:18:35.299Z,17.00
2017-08-10T07:21:08.882Z,17.20
2017-08-10T07:23:52.652Z,17.30
2017-08-10T07:26:28.287Z,17.30
2017-08-10T07:29:05.394Z,17.30
2017-08-10T07:31:45.048Z,17.30
2017-08-10T07:34:20.410Z,17.30
2017-08-10T07:37:08.090Z,17.10
2017-08-10T07:39:41.727Z,17.10
2017-08-10T07:42:19.394Z,17.10
2017-08-10T07:44:54.497Z,17.10
2017-08-10T07:47:28.464Z,17.20
2017-08-10T07:50:07.311Z,17.20
2017-08-10T07:52:42.575Z,17.10
2017-08-10T07:55:19.670Z,17.20
2017-08-10T07:57:53.981Z,17.20
2017-08-10T08:00:27.554Z,17.10
2017-08-10T08:03:03.039Z,17.00
2017-08-10T08:05:39.078Z,16.90
2017-08-10T08:08:14.058Z,16.90
2017-08-10T08:10:51.941Z,17.00
2017-08-10T08:13:28.112Z,17.00
2017-08-10T08:16:04.495Z,17.00
2017-08-10T08:18:42.353Z,17.00
2017-08-10T08:21:20.332Z,17.00
2017-08-10T08:23:56.924Z,17.10
2017-08-10T08:26:32.609Z,17.00
2017-08-10T08:29:06.326Z,17.00
2017-08-10T08:31:42.968Z,17.00
2017-08-10T08:34:21.146Z,17.10
2017-08-10T08:36:56.651Z,17.00
2017-08-10T08:39:30.502Z,17.00
2017-08-10T08:42:04.392Z,16.90
2017-08-10T08:44:40.339Z,16.70
2017-08-10T08:47:17.143Z,16.70
2017-08-10T08:49:57.560Z,16.80
2017-08-10T08:52:32.904Z,16.90
2017-08-10T08:55:11.994Z,16.90
2017-08-10T08:57:47.282Z,16.90
2017-08-10T09:00:22.063Z,16.90
2017-08-10T09:02:59.333Z,17.00
2017-08-10T09:05:34.204Z,17.00
2017-08-10T09:08:10.675Z,17.00
2017-08-10T09:10:46.908Z,16.90
2017-08-10T09:13:20.788Z,16.90
2017-08-10T09:15:56.167Z,17.00
2017-08-10T09:18:38.326Z,16.90
2017-08-10T09:21:17.596Z,17.10
2017-08-10T09:24:07.196Z,17.10
2017-08-10T09:26:46.676Z,17.30
2017-08-10T09:29:24.205Z,17.10
2017-08-10T09:32:01.484Z,17.20
2017-08-10T09:34:36.960Z,17.10
2017-08-10T09:37:15.962Z,17.10
2017-08-10T09:39:52.295Z,17.00
2017-08-10T09:42:27.166Z,17.00
2017-08-10T09:45:04.203Z,17.00
2017-08-10T09:47:44.381Z,17.10
2017-08-10T09:50:18.824Z,16.90
2017-08-10T09:52:54.466Z,16.90
2017-08-10T09:55:29.858Z,17.00
2017-08-10T09:58:09.953Z,17.00
2017-08-10T10:00:47.341Z,17.10
2017-08-10T10:03:22.059Z,17.00
2017-08-10T10:05:58.862Z,17.00
2017-08-10T10:08:33.329Z,17.10
2017-08-10T10:11:06.957Z,17.00
2017-08-10T10:13:40.956Z,17.00
2017-08-10T10:16:16.243Z,17.10
2017-08-10T10:18:54.047Z,17.10
2017-08-10T10:21:29.373Z,17.10
2017-08-10T10:24:03.745Z,17.00
2017-08-10T10:26:40.681Z,17.00
2017-08-10T10:29:19.054Z,17.10
2017-08-10T10:31:52.792Z,17.20
2017-08-10T10:34:26.662Z,17.20
2017-08-10T10:37:03.608Z,17.20
2017-08-10T10:39:39.920Z,17.30
2017-08-10T10:42:14.090Z,17.20
2017-08-10T10:44:47.860Z,17.20
2017-08-10T10:47:24.182Z,17.00
2017-08-10T10:49:58.089Z,17.00
2017-08-10T10:52:32.768Z,17.10
2017-08-10T10:55:08.322Z,17.00
2017-08-10T10:57:42.187Z,17.00
2017-08-10T11:00:22.306Z,16.80
2017-08-10T11:02:56.363Z,16.60
2017-08-10T11:05:31.274Z,16.60
2017-08-10T11:08:07.188Z,16.60
2017-08-10T11:10:42.579Z,16.60
2017-08-10T11:13:17.412Z,16.60
2017-08-10T11:15:51.015Z,16.60
2017-08-10T11:18:24.808Z,16.70
2017-08-10T11:21:00.207Z,16.80
2017-08-10T11:23:34.643Z,16.60
2017-08-10T11:26:10.048Z,16.50
2017-08-10T11:28:46.296Z,16.60
2017-08-10T11:31:21.612Z,16.80
2017-08-10T11:34:01.032Z,16.80
2017-08-10T11:36:35.585Z,16.80
2017-08-10T11:39:12.031Z,16.80
2017-08-10T11:41:45.822Z,16.90
2017-08-10T11:44:20.135Z,17.00
2017-08-10T11:46:59.997Z,16.90
2017-08-10T11:49:33.885Z,17.00
2017-08-10T11:52:09.905Z,16.90
2017-08-10T11:57:42.816Z,16.90
2017-08-10T12:00:18.656Z,17.10
2017-08-10T12:02:52.423Z,16.90
2017-08-10T12:05:26.240Z,16.90
2017-08-10T12:08:00.660Z,16.80
2017-08-10T12:10:38.759Z,16.80
2017-08-10T12:13:15.716Z,16.80
2017-08-10T12:15:52.270Z,16.80
2017-08-10T12:18:26.308Z,17.00
2017-08-10T12:21:03.404Z,17.10
2017-08-10T12:23:40.592Z,17.00
2017-08-10T12:26:14.676Z,16.90
2017-08-10T12:28:48.348Z,16.90
2017-08-10T12:31:22.001Z,17.00
2017-08-10T12:33:56.472Z,17.00
2017-08-10T12:36:35.461Z,17.10
2017-08-10T12:39:11.486Z,17.00
2017-08-10T12:41:45.795Z,16.90
2017-08-10T12:44:21.114Z,16.90
2017-08-10T12:46:55.033Z,17.10
2017-08-10T12:49:29.020Z,17.10
2017-08-10T12:52:02.993Z,17.20
2017-08-10T12:54:38.280Z,17.00
2017-08-10T12:57:12.199Z,17.10
2017-08-10T12:59:47.590Z,17.00
2017-08-10T13:02:21.848Z,17.00
2017-08-10T13:04:55.666Z,17.00
2017-08-10T13:07:29.543Z,17.00
2017-08-10T13:10:04.531Z,16.90
2017-08-10T13:12:39.812Z,16.80
2017-08-10T13:15:13.883Z,16.90
2017-08-10T13:17:47.812Z,17.00
2017-08-10T13:20:21.597Z,17.00
2017-08-10T13:22:55.365Z,16.80
2017-08-10T13:25:32.648Z,16.80
2017-08-10T13:28:06.380Z,16.80
2017-08-10T13:30:40.376Z,16.70
2017-08-10T13:33:14.544Z,16.70
2017-08-10T13:35:48.858Z,16.50
2017-08-10T13:38:22.726Z,16.00
2017-08-10T13:40:56.594Z,15.60
2017-08-10T13:43:31.314Z,15.20
2017-08-10T13:46:06.045Z,15.20
2017-08-10T13:48:40.317Z,15.00
2017-08-10T13:51:14.357Z,14.50
2017-08-10T13:53:48.307Z,14.30
2017-08-10T13:56:22.290Z,14.20
2017-08-10T13:58:56.272Z,14.30
2017-08-10T14:01:30.251Z,14.50
2017-08-10T14:04:05.330Z,14.30
2017-08-10T14:06:40.028Z,14.40
2017-08-10T14:12:00.810Z,14.20
2017-08-10T14:14:34.631Z,14.20
2017-08-10T14:17:09.443Z,14.10
2017-08-10T14:19:44.288Z,14.40
2017-08-10T14:22:19.218Z,14.40
2017-08-10T14:24:53.960Z,14.20
2017-08-10T14:27:29.583Z,14.20
2017-08-10T14:30:03.474Z,14.20
2017-08-10T14:32:38.511Z,13.80
2017-08-10T14:35:12.789Z,13.80
2017-08-10T14:37:46.918Z,14.00
2017-08-10T14:40:22.156Z,13.70
2017-08-10T14:42:56.273Z,13.70
2017-08-10T14:45:31.236Z,13.50
2017-08-10T14:48:05.367Z,13.70
2017-08-10T14:50:40.844Z,13.40
2017-08-10T14:53:14.607Z,13.30
2017-08-10T14:55:49.140Z,13.20
2017-08-10T14:58:22.989Z,13.10
2017-08-10T15:00:57.710Z,12.90
2017-08-10T15:06:28.174Z,13.10
2017-08-10T15:09:03.009Z,12.60
2017-08-10T15:11:37.005Z,12.40
2017-08-10T15:14:11.455Z,12.30
2017-08-10T15:16:46.492Z,12.30
2017-08-10T15:19:21.583Z,12.30
2017-08-10T15:21:55.614Z,12.10
2017-08-10T15:24:30.623Z,12.10
2017-08-10T15:27:04.413Z,12.00
2017-08-10T15:29:38.981Z,11.90
2017-08-10T15:32:13.023Z,11.90
2017-08-10T15:34:46.969Z,12.00
2017-08-10T15:37:20.810Z,12.10
2017-08-10T15:39:54.776Z,11.90
2017-08-10T15:42:29.239Z,12.10
2017-08-10T15:45:03.951Z,12.00
2017-08-10T15:47:38.726Z,12.10
2017-08-10T15:50:12.661Z,12.10
2017-08-10T15:52:47.379Z,11.70
2017-08-10T15:55:21.368Z,11.70
2017-08-10T15:57:55.209Z,11.70
2017-08-10T16:00:29.355Z,11.70
2017-08-10T16:03:03.106Z,11.90
2017-08-10T16:05:37.803Z,11.90
2017-08-10T16:08:11.686Z,12.30
2017-08-10T16:10:45.430Z,12.10
2017-08-10T16:13:20.105Z,12.10
2017-08-10T16:15:53.737Z,12.10
2017-08-10T16:18:28.006Z,11.80
2017-08-10T16:21:02.131Z,11.90
2017-08-10T16:23:36.642Z,11.40
2017-08-10T16:26:11.290Z,11.50
2017-08-10T16:28:44.991Z,11.50
2017-08-10T16:31:19.711Z,11.80
2017-08-10T16:33:54.650Z,11.80
2017-08-10T16:36:28.527Z,11.80
2017-08-10T16:39:02.552Z,11.90
2017-08-10T16:41:37.086Z,11.70
2017-08-10T16:44:11.024Z,11.70
2017-08-10T16:46:45.648Z,11.70
2017-08-10T16:49:20.168Z,11.70
2017-08-10T16:51:54.531Z,11.60
2017-08-10T16:54:31.789Z,11.40
2017-08-10T16:57:05.557Z,11.60
2017-08-10T16:59:40.084Z,11.70
2017-08-10T17:02:13.935Z,11.70
2017-08-10T17:04:47.834Z,12.20
2017-08-10T17:07:22.349Z,12.00
2017-08-10T17:09:56.230Z,12.00
2017-08-10T17:12:30.105Z,12.10
2017-08-10T17:15:04.166Z,12.20
2017-08-10T17:17:38.357Z,12.60
2017-08-10T17:20:13.111Z,12.60
2017-08-10T17:22:47.054Z,12.80
2017-08-10T17:25:21.716Z,12.40
2017-08-10T17:27:55.792Z,12.40
2017-08-10T17:30:30.600Z,12.50
2017-08-10T17:33:04.313Z,12.30
2017-08-10T17:35:38.332Z,12.20
2017-08-10T17:38:13.237Z,12.00
2017-08-10T17:40:47.099Z,12.50
2017-08-10T17:43:21.380Z,12.10
2017-08-10T17:45:56.097Z,12.00
2017-08-10T17:48:30.114Z,12.00
2017-08-10T17:51:12.384Z,12.50
2017-08-10T17:53:52.382Z,12.00
2017-08-10T17:56:29.231Z,12.00
2017-08-10T17:59:03.933Z,12.10
2017-08-10T18:01:40.764Z,11.80
2017-08-10T18:04:16.217Z,11.80
2017-08-10T18:06:51.943Z,11.70
2017-08-10T18:09:26.137Z,11.70
2017-08-10T18:12:00.304Z,11.80
2017-08-10T18:14:38.227Z,11.90
2017-08-10T18:17:13.668Z,12.10
2017-08-10T18:19:47.504Z,12.30
2017-08-10T18:22:22.356Z,12.80
2017-08-10T18:24:56.589Z,12.80
2017-08-10T18:27:30.450Z,13.00
2017-08-10T18:30:04.545Z,12.90
2017-08-10T18:32:39.571Z,13.00
2017-08-10T18:35:14.389Z,13.10
2017-08-10T18:37:48.641Z,13.10
2017-08-10T18:40:24.183Z,12.90
2017-08-10T18:42:58.293Z,12.80
2017-08-10T18:45:32.220Z,12.70
2017-08-10T18:48:06.055Z,12.70
2017-08-10T18:50:40.316Z,12.70
2017-08-10T18:53:15.776Z,12.30
2017-08-10T18:55:50.012Z,12.30
2017-08-10T18:58:24.734Z,12.60
2017-08-10T19:00:58.609Z,12.70
2017-08-10T19:03:32.649Z,12.90
2017-08-10T19:06:07.377Z,13.10
2017-08-10T19:08:42.170Z,13.10
2017-08-10T19:11:16.172Z,13.10
2017-08-10T19:13:50.339Z,13.10
2017-08-10T19:16:25.221Z,13.20
2017-08-10T19:18:59.331Z,13.20
2017-08-10T19:21:33.568Z,13.20
2017-08-10T19:24:07.389Z,13.20
2017-08-10T19:26:42.172Z,13.10
2017-08-10T19:29:16.063Z,13.10
2017-08-10T19:31:50.978Z,13.00
2017-08-10T19:34:25.022Z,13.10
2017-08-10T19:36:59.119Z,13.00
2017-08-10T19:39:34.625Z,12.70
2017-08-10T19:42:08.424Z,12.70
2017-08-10T19:44:42.254Z,12.90
2017-08-10T19:47:17.248Z,13.20
2017-08-10T19:52:50.022Z,13.10
2017-08-10T19:55:23.762Z,13.10
2017-08-10T19:57:59.095Z,12.90
2017-08-10T20:00:33.436Z,12.90
2017-08-10T20:03:08.153Z,13.00
2017-08-10T20:05:43.800Z,13.00
2017-08-10T20:08:18.545Z,13.00
2017-08-10T20:10:54.358Z,13.10
2017-08-10T20:13:28.253Z,13.00
2017-08-10T20:16:02.259Z,13.10
2017-08-10T20:18:36.037Z,13.10
2017-08-10T20:21:10.110Z,13.00
2017-08-10T20:23:44.232Z,12.80
2017-08-10T20:26:19.136Z,12.80
2017-08-10T20:28:52.998Z,12.80
2017-08-10T20:31:27.109Z,12.80
2017-08-10T20:34:01.731Z,12.80
2017-08-10T20:36:35.674Z,12.80
2017-08-10T20:39:09.503Z,12.90
2017-08-10T20:41:43.297Z,13.00
2017-08-10T20:44:18.380Z,13.00
2017-08-10T20:46:52.533Z,13.00
2017-08-10T20:49:27.999Z,13.10
2017-08-10T20:52:01.954Z,13.10
2017-08-10T20:54:36.851Z,12.90
2017-08-10T20:57:10.717Z,12.90
2017-08-10T20:59:44.778Z,12.80
2017-08-10T21:02:19.182Z,12.80
2017-08-10T21:04:54.134Z,12.90
2017-08-10T21:07:28.411Z,13.00
2017-08-10T21:10:02.934Z,13.10
2017-08-10T21:12:36.971Z,13.10
2017-08-10T21:15:12.000Z,13.10
2017-08-10T21:17:46.014Z,13.10
2017-08-10T21:20:19.937Z,13.10
2017-08-10T21:22:54.723Z,12.90
2017-08-10T21:25:29.313Z,12.50
2017-08-10T21:28:03.011Z,12.50
2017-08-10T21:30:38.093Z,12.30
2017-08-10T21:33:13.014Z,12.50
2017-08-10T21:35:48.464Z,12.70
2017-08-10T21:38:22.445Z,12.80
2017-08-10T21:40:57.713Z,12.90
2017-08-10T21:43:31.453Z,12.90
2017-08-10T21:46:05.358Z,13.00
2017-08-10T21:48:39.345Z,13.00
2017-08-10T21:51:13.122Z,13.00
2017-08-10T21:53:47.020Z,13.10
2017-08-10T21:56:20.835Z,13.10
2017-08-10T21:58:55.806Z,12.90
2017-08-10T22:01:30.938Z,13.10
2017-08-10T22:04:04.658Z,13.10
2017-08-10T22:06:41.081Z,13.10
2017-08-10T22:09:14.889Z,13.00
2017-08-10T22:11:48.858Z,13.00
2017-08-10T22:14:25.113Z,13.00
2017-08-10T22:17:00.984Z,13.00
2017-08-10T22:19:34.718Z,13.10
2017-08-10T22:22:09.354Z,13.10
2017-08-10T22:24:44.701Z,13.10
2017-08-10T22:27:20.015Z,13.10
2017-08-10T22:29:54.603Z,13.00
2017-08-10T22:32:29.123Z,13.00
2017-08-10T22:35:03.175Z,12.90
2017-08-10T22:37:37.532Z,12.90
2017-08-10T22:40:12.548Z,13.00
2017-08-10T22:42:47.058Z,13.00
2017-08-10T22:45:21.111Z,13.00
2017-08-10T22:47:56.577Z,12.50
2017-08-10T22:50:30.518Z,12.50
2017-08-10T22:53:05.820Z,12.50
2017-08-10T22:55:39.838Z,12.30
2017-08-10T22:58:14.904Z,12.40
2017-08-10T23:00:49.109Z,12.50
2017-08-10T23:03:22.833Z,12.70
2017-08-10T23:05:56.893Z,12.50
2017-08-10T23:08:32.399Z,12.50
2017-08-10T23:11:06.403Z,12.50
2017-08-10T23:13:40.193Z,12.40
2017-08-10T23:16:15.304Z,12.60
2017-08-10T23:18:50.167Z,12.80
2017-08-10T23:21:24.980Z,12.60
2017-08-10T23:23:59.009Z,12.60
2017-08-10T23:26:34.824Z,12.70
2017-08-10T23:29:09.177Z,12.60
2017-08-10T23:31:43.062Z,12.80
2017-08-10T23:34:16.886Z,12.50
2017-08-10T23:36:50.580Z,12.40
2017-08-10T23:39:24.525Z,12.60
2017-08-10T23:41:58.224Z,12.60
2017-08-10T23:44:32.870Z,12.30
2017-08-10T23:47:06.969Z,12.30
2017-08-10T23:49:40.907Z,12.30
2017-08-10T23:52:14.742Z,12.50
2017-08-10T23:54:49.610Z,12.20
2017-08-10T23:57:24.315Z,12.20
2017-08-10T23:59:58.311Z,12.30
